CheckWX is a tool to help pilots better visualize weather data.  It is not intended as a substitute for an official pre-flight weather briefing.

03:43:17 UTC

HESH TAF
Sharm El Sheikh International Airport
Sharm el-Sheikh, Egypt
TAF HESH 232300Z 2400/2506 35012KT CAVOK

May-24@
00:00 UTC

May-24 @ 00:00 UTC

May-25@
06:00 UTC

May-25 @ 06:00 UTC

TAF HESH 232300Z 2400/2506 35012KT CAVOK
Wind
  • 350° at 12 KTS
Conditions
No significant weather
Cloud Levels
  • No significant clouds